createdAt,value
2022-11-02T00:00:30.711Z,12.64
2022-11-02T00:05:34.911Z,12.64
2022-11-02T00:10:39.051Z,12.60
2022-11-02T00:15:43.205Z,12.59
2022-11-02T00:20:47.370Z,12.64
2022-11-02T00:25:51.550Z,12.66
2022-11-02T00:30:55.683Z,12.64
2022-11-02T00:35:59.831Z,12.69
2022-11-02T00:41:04.024Z,12.72
2022-11-02T00:46:08.162Z,12.61
2022-11-02T00:51:12.367Z,12.53
2022-11-02T00:56:16.476Z,12.45
2022-11-02T01:01:20.802Z,12.42
2022-11-02T01:06:24.843Z,12.43
2022-11-02T01:11:28.973Z,12.49
2022-11-02T01:16:33.225Z,12.47
2022-11-02T01:21:37.417Z,12.55
2022-11-02T01:26:41.635Z,12.46
2022-11-02T01:31:45.626Z,12.47
2022-11-02T01:36:49.793Z,12.53
2022-11-02T01:41:53.930Z,12.46
2022-11-02T01:46:58.126Z,12.48
2022-11-02T01:52:02.274Z,12.44
2022-11-02T01:57:04.546Z,12.50
2022-11-02T02:02:08.766Z,12.62
2022-11-02T02:07:12.871Z,12.68
2022-11-02T02:12:17.019Z,12.76
2022-11-02T02:17:21.167Z,12.84
2022-11-02T02:22:25.342Z,12.77
2022-11-02T02:27:27.587Z,12.77
2022-11-02T02:32:31.742Z,12.71
2022-11-02T02:37:35.911Z,12.67
2022-11-02T02:42:40.086Z,12.57
2022-11-02T02:47:44.241Z,12.50
2022-11-02T02:52:48.420Z,12.50
2022-11-02T02:57:52.564Z,12.49
2022-11-02T03:02:56.803Z,12.56
2022-11-02T03:08:01.083Z,12.56
2022-11-02T03:13:05.055Z,12.56
2022-11-02T03:18:09.212Z,12.52
2022-11-02T03:23:13.372Z,12.56
2022-11-02T03:28:17.555Z,12.57
2022-11-02T03:33:21.700Z,12.56
2022-11-02T03:38:25.859Z,12.54
2022-11-02T03:43:29.985Z,12.64
2022-11-02T03:48:34.191Z,12.63
2022-11-02T03:53:38.317Z,12.55
2022-11-02T03:58:42.504Z,12.52
2022-11-02T04:03:46.614Z,12.51
2022-11-02T04:08:50.825Z,12.48
2022-11-02T04:13:54.968Z,12.43
2022-11-02T04:18:59.126Z,12.36
2022-11-02T04:24:03.330Z,12.35
2022-11-02T04:29:07.461Z,12.27
2022-11-02T04:34:11.625Z,12.23
2022-11-02T04:39:15.760Z,12.24
2022-11-02T04:44:20.820Z,12.25
2022-11-02T04:49:24.084Z,12.16
2022-11-02T04:54:28.274Z,12.13
2022-11-02T04:59:32.427Z,12.18
2022-11-02T05:04:36.576Z,12.09
2022-11-02T05:09:40.772Z,12.06
2022-11-02T05:14:44.881Z,12.08
2022-11-02T05:19:49.057Z,12.12
2022-11-02T05:24:53.213Z,12.12
2022-11-02T05:29:57.409Z,12.21
2022-11-02T05:35:01.555Z,12.22
2022-11-02T05:40:05.686Z,12.31
2022-11-02T05:45:09.872Z,12.41
2022-11-02T05:50:14.029Z,12.39
2022-11-02T05:55:18.164Z,12.24
2022-11-02T06:00:22.366Z,12.20
2022-11-02T06:05:26.660Z,12.12
2022-11-02T06:10:30.702Z,12.13
2022-11-02T06:15:34.876Z,12.12
2022-11-02T06:20:39.011Z,12.13
2022-11-02T06:25:43.134Z,12.12
2022-11-02T06:30:47.293Z,12.09
2022-11-02T06:35:51.483Z,12.06
2022-11-02T06:40:55.642Z,12.04
2022-11-02T06:45:59.805Z,12.06
2022-11-02T06:51:03.935Z,12.07
2022-11-02T06:56:08.173Z,12.17
2022-11-02T07:01:12.386Z,12.22
2022-11-02T07:06:16.403Z,12.25
2022-11-02T07:11:20.606Z,12.26
2022-11-02T07:16:24.757Z,12.29
2022-11-02T07:21:28.896Z,12.32
2022-11-02T07:26:33.081Z,12.33
2022-11-02T07:31:37.269Z,12.35
2022-11-02T07:36:41.384Z,12.34
2022-11-02T07:41:50.744Z,12.37
2022-11-02T07:46:49.720Z,12.43
2022-11-02T07:51:53.878Z,12.41
2022-11-02T07:56:56.147Z,12.43
2022-11-02T08:02:00.294Z,12.42
2022-11-02T08:07:04.480Z,12.47
2022-11-02T08:12:08.655Z,12.48
2022-11-02T08:17:12.816Z,12.43
2022-11-02T08:22:16.917Z,12.33
2022-11-02T08:27:21.117Z,12.27
2022-11-02T08:32:25.295Z,12.19
2022-11-02T08:37:29.467Z,12.27
2022-11-02T08:42:33.580Z,12.49
2022-11-02T08:47:37.791Z,12.64
2022-11-02T08:52:41.897Z,12.81
2022-11-02T08:57:46.099Z,12.97
2022-11-02T09:02:50.287Z,12.93
2022-11-02T09:07:54.404Z,12.98
2022-11-02T09:12:58.562Z,13.07
2022-11-02T09:18:03.224Z,13.16
2022-11-02T09:23:06.863Z,13.02
2022-11-02T09:28:11.241Z,13.13
2022-11-02T09:33:15.208Z,13.13
2022-11-02T09:38:19.368Z,13.01
2022-11-02T09:43:27.051Z,13.04
2022-11-02T09:48:28.735Z,12.87
2022-11-02T09:53:31.837Z,12.89
2022-11-02T09:58:35.999Z,12.94
2022-11-02T10:03:40.150Z,12.94
2022-11-02T10:08:44.290Z,12.96
2022-11-02T10:13:51.245Z,12.96
2022-11-02T10:18:54.662Z,13.41
2022-11-02T10:23:56.796Z,13.56
2022-11-02T10:29:00.950Z,13.68
2022-11-02T10:34:05.257Z,13.84
2022-11-02T10:39:09.313Z,14.08
2022-11-02T10:44:13.430Z,14.24
2022-11-02T10:49:17.594Z,14.35
2022-11-02T10:54:26.650Z,14.35
2022-11-02T10:59:25.975Z,14.28
2022-11-02T11:04:30.081Z,14.21
2022-11-02T11:09:34.240Z,14.27
2022-11-02T11:19:42.543Z,14.42
2022-11-02T11:24:46.789Z,14.73
2022-11-02T11:29:50.918Z,14.60
2022-11-02T11:34:55.066Z,14.80
2022-11-02T11:45:03.363Z,15.01
2022-11-02T11:50:15.402Z,14.95
2022-11-02T11:55:11.677Z,14.91
2022-11-02T12:00:15.963Z,14.95
2022-11-02T12:05:20.031Z,15.12
2022-11-02T12:10:24.171Z,15.09
2022-11-02T12:15:28.293Z,14.98
2022-11-02T12:20:32.481Z,15.21
2022-11-02T12:25:36.654Z,15.19
2022-11-02T12:30:40.812Z,15.19
2022-11-02T12:37:18.095Z,15.20
2022-11-02T12:40:49.224Z,15.04
2022-11-02T12:45:53.437Z,14.99
2022-11-02T12:50:57.461Z,14.57
2022-11-02T12:56:01.576Z,14.73
2022-11-02T13:01:10.762Z,14.74
2022-11-02T13:06:09.922Z,14.43
2022-11-02T13:16:18.214Z,14.60
2022-11-02T13:21:22.481Z,14.79
2022-11-02T13:26:24.686Z,15.04
2022-11-02T13:31:28.883Z,15.21
2022-11-02T13:36:32.991Z,15.27
2022-11-02T13:41:37.140Z,15.39
2022-11-02T13:46:41.301Z,15.27
2022-11-02T13:51:45.471Z,14.88
2022-11-02T13:56:49.614Z,14.61
2022-11-02T14:01:53.926Z,14.29
2022-11-02T14:06:57.948Z,14.51
2022-11-02T14:12:02.096Z,14.71
2022-11-02T14:17:06.224Z,14.67
2022-11-02T14:22:10.514Z,14.50
2022-11-02T14:27:14.612Z,14.36
2022-11-02T14:32:18.745Z,14.43
2022-11-02T14:37:22.881Z,14.31
2022-11-02T14:42:27.045Z,14.03
2022-11-02T14:47:31.247Z,14.04
2022-11-02T14:52:35.357Z,14.06
2022-11-02T14:57:39.561Z,14.12
2022-11-02T15:02:43.697Z,14.14
2022-11-02T15:07:47.845Z,14.34
2022-11-02T15:12:51.982Z,14.31
2022-11-02T15:17:56.192Z,14.08
2022-11-02T15:23:00.432Z,13.75
2022-11-02T15:28:04.679Z,13.46
2022-11-02T15:33:09.274Z,13.26
2022-11-02T15:38:18.009Z,12.96
2022-11-02T15:43:16.967Z,12.82
2022-11-02T15:48:21.157Z,12.61
2022-11-02T15:53:25.279Z,12.34
2022-11-02T15:58:29.468Z,12.03
2022-11-02T16:03:33.620Z,11.86
2022-11-02T16:08:37.809Z,11.68
2022-11-02T16:13:49.099Z,11.57
2022-11-02T16:18:46.134Z,11.43
2022-11-02T16:23:50.272Z,11.21
2022-11-02T16:28:54.404Z,11.15
2022-11-02T16:33:58.589Z,11.07
2022-11-02T16:39:02.723Z,11.01
2022-11-02T16:44:08.948Z,10.85
2022-11-02T16:49:11.077Z,10.72
2022-11-02T16:54:15.273Z,10.64
2022-11-02T16:59:19.392Z,10.52
2022-11-02T17:04:23.559Z,10.63
2022-11-02T17:09:27.678Z,10.64
2022-11-02T17:14:31.850Z,10.52
2022-11-02T17:19:36.037Z,10.43
2022-11-02T17:24:40.186Z,10.53
2022-11-02T17:29:44.383Z,10.60
2022-11-02T17:34:48.535Z,10.70
2022-11-02T17:39:52.673Z,10.76
2022-11-02T17:44:56.921Z,10.92
2022-11-02T17:50:01.113Z,10.88
2022-11-02T17:55:05.148Z,10.79
2022-11-02T18:00:09.313Z,10.82
2022-11-02T18:05:13.473Z,10.82
2022-11-02T18:10:17.648Z,10.86
2022-11-02T18:15:21.776Z,10.85
2022-11-02T18:20:25.996Z,10.90
2022-11-02T18:25:30.153Z,10.99
2022-11-02T18:30:34.294Z,10.97
2022-11-02T18:35:38.419Z,10.95
2022-11-02T18:40:42.654Z,10.98
2022-11-02T18:45:46.780Z,10.99
2022-11-02T18:50:50.932Z,10.97
2022-11-02T18:55:53.213Z,10.97
2022-11-02T19:00:57.536Z,10.99
2022-11-02T19:06:01.535Z,10.94
2022-11-02T19:11:05.685Z,11.00
2022-11-02T19:16:09.927Z,10.99
2022-11-02T19:21:14.035Z,10.91
2022-11-02T19:26:16.352Z,10.94
2022-11-02T19:31:20.452Z,10.86
2022-11-02T19:36:24.563Z,10.85
2022-11-02T19:41:28.774Z,10.92
2022-11-02T19:46:34.028Z,10.91
2022-11-02T19:51:37.079Z,10.86
2022-11-02T19:56:41.261Z,10.84
2022-11-02T20:01:45.511Z,10.91
2022-11-02T20:06:49.650Z,10.88
2022-11-02T20:11:53.740Z,10.85
2022-11-02T20:17:10.806Z,10.83
2022-11-02T20:22:02.119Z,10.77
2022-11-02T20:27:06.200Z,10.77
2022-11-02T20:37:14.514Z,10.68
2022-11-02T20:42:18.646Z,10.63
2022-11-02T20:47:22.862Z,10.67
2022-11-02T20:52:27.010Z,10.77
2022-11-02T20:57:31.175Z,10.76
2022-11-02T21:02:35.393Z,10.74
2022-11-02T21:07:39.508Z,10.81
2022-11-02T21:12:43.802Z,10.82
2022-11-02T21:17:47.795Z,10.89
2022-11-02T21:22:51.952Z,10.89
2022-11-02T21:27:56.130Z,10.85
2022-11-02T21:33:00.295Z,10.86
2022-11-02T21:38:06.948Z,10.83
2022-11-02T21:43:08.926Z,10.77
2022-11-02T21:48:12.809Z,10.69
2022-11-02T21:53:16.942Z,10.62
2022-11-02T21:58:21.072Z,10.58
2022-11-02T22:03:25.262Z,10.53
2022-11-02T22:13:33.577Z,10.57
2022-11-02T22:18:37.718Z,10.53
2022-11-02T22:23:41.921Z,10.49
2022-11-02T22:28:46.060Z,10.43
2022-11-02T22:33:50.215Z,10.37
2022-11-02T22:38:54.437Z,10.42
2022-11-02T22:43:58.549Z,10.47
2022-11-02T22:49:02.746Z,10.50
2022-11-02T22:54:06.897Z,10.48
2022-11-02T22:59:11.043Z,10.43
2022-11-02T23:04:15.174Z,10.36
2022-11-02T23:09:19.350Z,10.40
2022-11-02T23:14:23.541Z,10.35
2022-11-02T23:19:29.001Z,10.38
2022-11-02T23:24:31.823Z,10.43
2022-11-02T23:29:35.999Z,10.40
2022-11-02T23:34:40.177Z,10.33
2022-11-02T23:39:44.333Z,10.29
2022-11-02T23:44:48.478Z,10.29
2022-11-02T23:49:52.633Z,10.33
2022-11-02T23:54:56.816Z,10.33
